Terminal Aerodrome Forecast
Issued by NWS

Home | Current Version | Previous Version | Text Only | Print | Product List | Glossary On
Versions: 1 2 3 4 5 6 7 8 9 10 11 12 13
000
FTUS44 KTSA 311700
TAFXNA
TAF
KXNA 311725Z 3118/0118 17003KT P6SM BKN110 OVC150
     FM010000 16008KT P6SM OVC080
     FM010500 17012KT P6SM -RA OVC050
     FM010800 20010KT 3SM RA BR OVC015
     FM011200 23007KT 2SM RA BR OVC007=

USA.gov is the U.S. government's official web portal to all federal, state and local government web resources and services.